sensor_id;sensor_type;location;lat;lon;timestamp;P1;durP1;ratioP1;P2;durP2;ratioP2
32146;SDS011;32190;49.112;8.598;2023-03-23T00:01:33;0.47;;;0.47;;
32146;SDS011;32190;49.112;8.598;2023-03-23T00:07:26;0.30;;;0.30;;
32146;SDS011;32190;49.112;8.598;2023-03-23T00:13:18;0.30;;;0.30;;
32146;SDS011;32190;49.112;8.598;2023-03-23T00:19:11;0.20;;;0.20;;
32146;SDS011;32190;49.112;8.598;2023-03-23T00:25:06;0.30;;;0.30;;
32146;SDS011;32190;49.112;8.598;2023-03-23T00:30:59;1.85;;;0.50;;
32146;SDS011;32190;49.112;8.598;2023-03-23T00:36:54;0.30;;;0.30;;
32146;SDS011;32190;49.112;8.598;2023-03-23T00:42:48;1.15;;;0.38;;
32146;SDS011;32190;49.112;8.598;2023-03-23T00:48:49;0.40;;;0.40;;
32146;SDS011;32190;49.112;8.598;2023-03-23T00:54:40;0.25;;;0.25;;
32146;SDS011;32190;49.112;8.598;2023-03-23T01:00:31;0.30;;;0.30;;
32146;SDS011;32190;49.112;8.598;2023-03-23T01:06:21;0.40;;;0.40;;
32146;SDS011;32190;49.112;8.598;2023-03-23T01:12:12;0.20;;;0.20;;
32146;SDS011;32190;49.112;8.598;2023-03-23T01:18:03;0.47;;;0.45;;
32146;SDS011;32190;49.112;8.598;2023-03-23T01:23:54;0.30;;;0.30;;
32146;SDS011;32190;49.112;8.598;2023-03-23T01:29:44;0.68;;;0.40;;
32146;SDS011;32190;49.112;8.598;2023-03-23T01:35:36;0.55;;;0.45;;
32146;SDS011;32190;49.112;8.598;2023-03-23T01:41:27;0.30;;;0.30;;
32146;SDS011;32190;49.112;8.598;2023-03-23T01:47:19;0.43;;;0.43;;
32146;SDS011;32190;49.112;8.598;2023-03-23T01:53:13;0.30;;;0.30;;
32146;SDS011;32190;49.112;8.598;2023-03-23T01:59:04;0.35;;;0.35;;
32146;SDS011;32190;49.112;8.598;2023-03-23T02:04:55;0.70;;;0.50;;
32146;SDS011;32190;49.112;8.598;2023-03-23T02:10:50;0.40;;;0.40;;
32146;SDS011;32190;49.112;8.598;2023-03-23T02:22:43;0.32;;;0.32;;
32146;SDS011;32190;49.112;8.598;2023-03-23T02:35:28;0.30;;;0.30;;
32146;SDS011;32190;49.112;8.598;2023-03-23T02:41:24;0.68;;;0.32;;
32146;SDS011;32190;49.112;8.598;2023-03-23T02:47:22;1.10;;;0.65;;
32146;SDS011;32190;49.112;8.598;2023-03-23T02:53:20;0.50;;;0.30;;
32146;SDS011;32190;49.112;8.598;2023-03-23T02:59:13;0.32;;;0.32;;
32146;SDS011;32190;49.112;8.598;2023-03-23T03:11:15;0.30;;;0.30;;
32146;SDS011;32190;49.112;8.598;2023-03-23T03:17:41;0.25;;;0.25;;
32146;SDS011;32190;49.112;8.598;2023-03-23T03:23:29;1.00;;;0.50;;
32146;SDS011;32190;49.112;8.598;2023-03-23T03:29:23;0.40;;;0.40;;
32146;SDS011;32190;49.112;8.598;2023-03-23T03:35:21;0.22;;;0.22;;
32146;SDS011;32190;49.112;8.598;2023-03-23T03:41:13;0.45;;;0.30;;
32146;SDS011;32190;49.112;8.598;2023-03-23T03:47:04;0.40;;;0.40;;
32146;SDS011;32190;49.112;8.598;2023-03-23T03:52:55;0.32;;;0.32;;
32146;SDS011;32190;49.112;8.598;2023-03-23T03:58:46;0.40;;;0.40;;
32146;SDS011;32190;49.112;8.598;2023-03-23T04:04:38;0.30;;;0.30;;
32146;SDS011;32190;49.112;8.598;2023-03-23T04:10:29;0.47;;;0.30;;
32146;SDS011;32190;49.112;8.598;2023-03-23T04:16:21;0.40;;;0.40;;
32146;SDS011;32190;49.112;8.598;2023-03-23T04:22:12;0.43;;;0.43;;
32146;SDS011;32190;49.112;8.598;2023-03-23T04:28:06;1.10;;;0.40;;
32146;SDS011;32190;49.112;8.598;2023-03-23T04:34:00;0.30;;;0.30;;
32146;SDS011;32190;49.112;8.598;2023-03-23T04:39:52;0.85;;;0.50;;
32146;SDS011;32190;49.112;8.598;2023-03-23T04:45:53;0.30;;;0.30;;
32146;SDS011;32190;49.112;8.598;2023-03-23T04:51:53;0.40;;;0.40;;
32146;SDS011;32190;49.112;8.598;2023-03-23T04:57:43;0.40;;;0.40;;
32146;SDS011;32190;49.112;8.598;2023-03-23T05:03:34;1.45;;;0.40;;
32146;SDS011;32190;49.112;8.598;2023-03-23T05:09:25;0.57;;;0.57;;
32146;SDS011;32190;49.112;8.598;2023-03-23T05:15:16;0.40;;;0.40;;
32146;SDS011;32190;49.112;8.598;2023-03-23T05:21:16;0.85;;;0.50;;
32146;SDS011;32190;49.112;8.598;2023-03-23T05:33:07;0.50;;;0.50;;
32146;SDS011;32190;49.112;8.598;2023-03-23T05:39:17;0.30;;;0.30;;
32146;SDS011;32190;49.112;8.598;2023-03-23T05:45:08;0.40;;;0.40;;
32146;SDS011;32190;49.112;8.598;2023-03-23T05:51:00;1.60;;;0.40;;
32146;SDS011;32190;49.112;8.598;2023-03-23T05:56:51;0.40;;;0.40;;
32146;SDS011;32190;49.112;8.598;2023-03-23T06:02:42;0.88;;;0.32;;
32146;SDS011;32190;49.112;8.598;2023-03-23T06:08:33;0.50;;;0.50;;
32146;SDS011;32190;49.112;8.598;2023-03-23T06:14:26;0.43;;;0.38;;
32146;SDS011;32190;49.112;8.598;2023-03-23T06:20:17;0.35;;;0.35;;
32146;SDS011;32190;49.112;8.598;2023-03-23T06:26:08;0.30;;;0.30;;
32146;SDS011;32190;49.112;8.598;2023-03-23T06:32:01;0.43;;;0.43;;
32146;SDS011;32190;49.112;8.598;2023-03-23T06:37:53;0.45;;;0.45;;
32146;SDS011;32190;49.112;8.598;2023-03-23T06:43:44;0.50;;;0.50;;
32146;SDS011;32190;49.112;8.598;2023-03-23T06:49:36;0.50;;;0.38;;
32146;SDS011;32190;49.112;8.598;2023-03-23T06:55:26;0.63;;;0.57;;
32146;SDS011;32190;49.112;8.598;2023-03-23T07:01:17;0.50;;;0.50;;
32146;SDS011;32190;49.112;8.598;2023-03-23T07:07:08;0.90;;;0.40;;
32146;SDS011;32190;49.112;8.598;2023-03-23T07:13:01;0.60;;;0.60;;
32146;SDS011;32190;49.112;8.598;2023-03-23T07:18:54;0.70;;;0.60;;
32146;SDS011;32190;49.112;8.598;2023-03-23T07:24:45;0.98;;;0.70;;
32146;SDS011;32190;49.112;8.598;2023-03-23T07:30:35;0.50;;;0.50;;
32146;SDS011;32190;49.112;8.598;2023-03-23T07:36:26;0.50;;;0.50;;
32146;SDS011;32190;49.112;8.598;2023-03-23T07:42:17;0.57;;;0.57;;
32146;SDS011;32190;49.112;8.598;2023-03-23T07:48:12;0.43;;;0.43;;
32146;SDS011;32190;49.112;8.598;2023-03-23T07:54:03;0.80;;;0.63;;
32146;SDS011;32190;49.112;8.598;2023-03-23T07:59:55;0.43;;;0.43;;
32146;SDS011;32190;49.112;8.598;2023-03-23T08:05:46;1.63;;;0.60;;
32146;SDS011;32190;49.112;8.598;2023-03-23T08:11:37;0.50;;;0.50;;
32146;SDS011;32190;49.112;8.598;2023-03-23T08:17:28;0.30;;;0.30;;
32146;SDS011;32190;49.112;8.598;2023-03-23T08:23:19;0.60;;;0.60;;
32146;SDS011;32190;49.112;8.598;2023-03-23T08:29:11;0.40;;;0.40;;
32146;SDS011;32190;49.112;8.598;2023-03-23T08:42:11;0.50;;;0.50;;
32146;SDS011;32190;49.112;8.598;2023-03-23T08:54:31;0.47;;;0.47;;
32146;SDS011;32190;49.112;8.598;2023-03-23T09:00:38;1.20;;;0.80;;
32146;SDS011;32190;49.112;8.598;2023-03-23T09:06:29;0.85;;;0.68;;
32146;SDS011;32190;49.112;8.598;2023-03-23T09:12:22;0.63;;;0.60;;
32146;SDS011;32190;49.112;8.598;2023-03-23T09:18:13;0.68;;;0.68;;
32146;SDS011;32190;49.112;8.598;2023-03-23T09:24:04;0.35;;;0.35;;
32146;SDS011;32190;49.112;8.598;2023-03-23T09:29:55;0.70;;;0.60;;
32146;SDS011;32190;49.112;8.598;2023-03-23T09:35:46;0.40;;;0.40;;
32146;SDS011;32190;49.112;8.598;2023-03-23T10:00:24;0.40;;;0.40;;
32146;SDS011;32190;49.112;8.598;2023-03-23T10:06:33;0.50;;;0.50;;
32146;SDS011;32190;49.112;8.598;2023-03-23T10:12:29;0.50;;;0.32;;
32146;SDS011;32190;49.112;8.598;2023-03-23T10:18:41;0.50;;;0.43;;
32146;SDS011;32190;49.112;8.598;2023-03-23T10:24:56;0.30;;;0.30;;
32146;SDS011;32190;49.112;8.598;2023-03-23T10:31:16;0.40;;;0.40;;
32146;SDS011;32190;49.112;8.598;2023-03-23T10:37:26;0.32;;;0.32;;
32146;SDS011;32190;49.112;8.598;2023-03-23T10:43:21;0.50;;;0.40;;
32146;SDS011;32190;49.112;8.598;2023-03-23T10:49:13;0.40;;;0.40;;
32146;SDS011;32190;49.112;8.598;2023-03-23T10:55:13;0.30;;;0.30;;
32146;SDS011;32190;49.112;8.598;2023-03-23T11:01:05;0.60;;;0.40;;
32146;SDS011;32190;49.112;8.598;2023-03-23T11:07:02;0.40;;;0.40;;
32146;SDS011;32190;49.112;8.598;2023-03-23T11:19:58;0.70;;;0.70;;
32146;SDS011;32190;49.112;8.598;2023-03-23T11:32:22;0.40;;;0.40;;
32146;SDS011;32190;49.112;8.598;2023-03-23T11:44:34;0.50;;;0.50;;
32146;SDS011;32190;49.112;8.598;2023-03-23T11:50:32;0.50;;;0.50;;
32146;SDS011;32190;49.112;8.598;2023-03-23T11:56:36;0.65;;;0.55;;
32146;SDS011;32190;49.112;8.598;2023-03-23T12:02:35;0.40;;;0.40;;
32146;SDS011;32190;49.112;8.598;2023-03-23T12:15:10;0.43;;;0.43;;
32146;SDS011;32190;49.112;8.598;2023-03-23T12:21:36;0.45;;;0.45;;
32146;SDS011;32190;49.112;8.598;2023-03-23T12:52:35;0.40;;;0.40;;
32146;SDS011;32190;49.112;8.598;2023-03-23T12:58:46;1.17;;;0.40;;
32146;SDS011;32190;49.112;8.598;2023-03-23T13:04:45;0.50;;;0.50;;
32146;SDS011;32190;49.112;8.598;2023-03-23T13:10:44;0.40;;;0.40;;
32146;SDS011;32190;49.112;8.598;2023-03-23T13:23:04;0.50;;;0.50;;
32146;SDS011;32190;49.112;8.598;2023-03-23T13:29:14;1.02;;;0.45;;
32146;SDS011;32190;49.112;8.598;2023-03-23T13:35:11;0.40;;;0.40;;
32146;SDS011;32190;49.112;8.598;2023-03-23T13:41:10;1.02;;;0.47;;
32146;SDS011;32190;49.112;8.598;2023-03-23T13:47:24;0.75;;;0.75;;
32146;SDS011;32190;49.112;8.598;2023-03-23T13:53:28;0.30;;;0.30;;
32146;SDS011;32190;49.112;8.598;2023-03-23T14:11:15;0.30;;;0.30;;
32146;SDS011;32190;49.112;8.598;2023-03-23T14:17:39;0.30;;;0.30;;
32146;SDS011;32190;49.112;8.598;2023-03-23T14:23:33;0.40;;;0.40;;
32146;SDS011;32190;49.112;8.598;2023-03-23T14:29:24;0.40;;;0.40;;
32146;SDS011;32190;49.112;8.598;2023-03-23T14:41:14;0.40;;;0.40;;
32146;SDS011;32190;49.112;8.598;2023-03-23T14:47:05;0.30;;;0.30;;
32146;SDS011;32190;49.112;8.598;2023-03-23T14:59:25;0.85;;;0.45;;
32146;SDS011;32190;49.112;8.598;2023-03-23T15:05:17;0.57;;;0.40;;
32146;SDS011;32190;49.112;8.598;2023-03-23T15:17:11;0.32;;;0.32;;
32146;SDS011;32190;49.112;8.598;2023-03-23T15:23:14;0.88;;;0.40;;
32146;SDS011;32190;49.112;8.598;2023-03-23T15:29:21;0.60;;;0.50;;
32146;SDS011;32190;49.112;8.598;2023-03-23T15:35:14;0.38;;;0.38;;
32146;SDS011;32190;49.112;8.598;2023-03-23T15:41:26;0.33;;;0.33;;
32146;SDS011;32190;49.112;8.598;2023-03-23T15:47:32;0.32;;;0.32;;
32146;SDS011;32190;49.112;8.598;2023-03-23T15:53:31;1.17;;;0.50;;
32146;SDS011;32190;49.112;8.598;2023-03-23T15:59:28;1.08;;;0.60;;
32146;SDS011;32190;49.112;8.598;2023-03-23T16:05:19;0.40;;;0.40;;
32146;SDS011;32190;49.112;8.598;2023-03-23T16:24:25;0.40;;;0.40;;
32146;SDS011;32190;49.112;8.598;2023-03-23T16:38:02;0.73;;;0.57;;
32146;SDS011;32190;49.112;8.598;2023-03-23T16:44:30;0.40;;;0.40;;
32146;SDS011;32190;49.112;8.598;2023-03-23T16:50:21;0.40;;;0.40;;
32146;SDS011;32190;49.112;8.598;2023-03-23T16:56:11;0.50;;;0.50;;
32146;SDS011;32190;49.112;8.598;2023-03-23T17:02:02;0.50;;;0.50;;
32146;SDS011;32190;49.112;8.598;2023-03-23T17:07:53;1.67;;;0.90;;
32146;SDS011;32190;49.112;8.598;2023-03-23T17:13:44;0.98;;;0.50;;
32146;SDS011;32190;49.112;8.598;2023-03-23T17:19:35;0.52;;;0.52;;
32146;SDS011;32190;49.112;8.598;2023-03-23T17:25:26;0.63;;;0.55;;
32146;SDS011;32190;49.112;8.598;2023-03-23T17:31:19;0.70;;;0.70;;
32146;SDS011;32190;49.112;8.598;2023-03-23T17:37:10;3.00;;;0.88;;
32146;SDS011;32190;49.112;8.598;2023-03-23T17:43:00;0.52;;;0.52;;
32146;SDS011;32190;49.112;8.598;2023-03-23T17:48:51;1.13;;;0.73;;
32146;SDS011;32190;49.112;8.598;2023-03-23T17:54:42;0.63;;;0.63;;
32146;SDS011;32190;49.112;8.598;2023-03-23T18:00:33;0.77;;;0.75;;
32146;SDS011;32190;49.112;8.598;2023-03-23T18:06:23;1.85;;;1.10;;
32146;SDS011;32190;49.112;8.598;2023-03-23T18:12:14;1.27;;;1.17;;
32146;SDS011;32190;49.112;8.598;2023-03-23T18:18:05;0.80;;;0.80;;
32146;SDS011;32190;49.112;8.598;2023-03-23T18:23:55;1.10;;;0.70;;
32146;SDS011;32190;49.112;8.598;2023-03-23T18:29:46;1.17;;;1.10;;
32146;SDS011;32190;49.112;8.598;2023-03-23T18:35:37;1.05;;;1.00;;
32146;SDS011;32190;49.112;8.598;2023-03-23T18:41:27;1.23;;;1.13;;
32146;SDS011;32190;49.112;8.598;2023-03-23T18:47:18;0.90;;;0.70;;
32146;SDS011;32190;49.112;8.598;2023-03-23T18:53:16;0.65;;;0.65;;
32146;SDS011;32190;49.112;8.598;2023-03-23T18:59:07;0.65;;;0.47;;
32146;SDS011;32190;49.112;8.598;2023-03-23T19:05:01;0.70;;;0.70;;
32146;SDS011;32190;49.112;8.598;2023-03-23T19:10:56;1.00;;;0.90;;
32146;SDS011;32190;49.112;8.598;2023-03-23T19:16:53;0.80;;;0.80;;
32146;SDS011;32190;49.112;8.598;2023-03-23T19:22:44;0.85;;;0.60;;
32146;SDS011;32190;49.112;8.598;2023-03-23T19:28:34;0.60;;;0.60;;
32146;SDS011;32190;49.112;8.598;2023-03-23T19:34:25;1.58;;;0.90;;
32146;SDS011;32190;49.112;8.598;2023-03-23T19:40:26;0.85;;;0.85;;
32146;SDS011;32190;49.112;8.598;2023-03-23T19:46:16;0.68;;;0.50;;
32146;SDS011;32190;49.112;8.598;2023-03-23T19:52:11;1.08;;;0.70;;
32146;SDS011;32190;49.112;8.598;2023-03-23T19:58:04;0.50;;;0.50;;
32146;SDS011;32190;49.112;8.598;2023-03-23T20:03:57;0.77;;;0.68;;
32146;SDS011;32190;49.112;8.598;2023-03-23T20:09:49;1.02;;;0.80;;
32146;SDS011;32190;49.112;8.598;2023-03-23T20:15:40;1.02;;;0.90;;
32146;SDS011;32190;49.112;8.598;2023-03-23T20:21:31;0.75;;;0.75;;
32146;SDS011;32190;49.112;8.598;2023-03-23T20:27:24;1.17;;;0.80;;
32146;SDS011;32190;49.112;8.598;2023-03-23T20:33:18;0.50;;;0.50;;
32146;SDS011;32190;49.112;8.598;2023-03-23T20:39:14;0.50;;;0.50;;
32146;SDS011;32190;49.112;8.598;2023-03-23T20:45:08;0.60;;;0.60;;
32146;SDS011;32190;49.112;8.598;2023-03-23T20:51:02;1.17;;;0.80;;
32146;SDS011;32190;49.112;8.598;2023-03-23T20:57:05;0.60;;;0.60;;
32146;SDS011;32190;49.112;8.598;2023-03-23T21:03:06;0.75;;;0.70;;
32146;SDS011;32190;49.112;8.598;2023-03-23T21:15:39;0.80;;;0.45;;
32146;SDS011;32190;49.112;8.598;2023-03-23T21:21:30;0.60;;;0.60;;
32146;SDS011;32190;49.112;8.598;2023-03-23T21:27:21;0.60;;;0.60;;
32146;SDS011;32190;49.112;8.598;2023-03-23T21:33:15;0.70;;;0.70;;
32146;SDS011;32190;49.112;8.598;2023-03-23T21:39:06;0.65;;;0.65;;
32146;SDS011;32190;49.112;8.598;2023-03-23T21:44:57;0.82;;;0.77;;
32146;SDS011;32190;49.112;8.598;2023-03-23T21:50:52;0.80;;;0.80;;
32146;SDS011;32190;49.112;8.598;2023-03-23T21:56:46;1.45;;;0.60;;
32146;SDS011;32190;49.112;8.598;2023-03-23T22:02:41;0.88;;;0.88;;
32146;SDS011;32190;49.112;8.598;2023-03-23T22:08:35;2.33;;;0.60;;
32146;SDS011;32190;49.112;8.598;2023-03-23T22:14:27;0.90;;;0.82;;
32146;SDS011;32190;49.112;8.598;2023-03-23T22:20:18;0.52;;;0.52;;
32146;SDS011;32190;49.112;8.598;2023-03-23T22:26:10;0.50;;;0.50;;
32146;SDS011;32190;49.112;8.598;2023-03-23T22:32:02;0.60;;;0.60;;
32146;SDS011;32190;49.112;8.598;2023-03-23T22:37:53;0.40;;;0.40;;
32146;SDS011;32190;49.112;8.598;2023-03-23T22:43:44;0.65;;;0.60;;
32146;SDS011;32190;49.112;8.598;2023-03-23T22:49:36;0.90;;;0.90;;
32146;SDS011;32190;49.112;8.598;2023-03-23T22:55:26;0.70;;;0.70;;
32146;SDS011;32190;49.112;8.598;2023-03-23T23:01:20;0.57;;;0.57;;
32146;SDS011;32190;49.112;8.598;2023-03-23T23:07:11;0.50;;;0.50;;
32146;SDS011;32190;49.112;8.598;2023-03-23T23:13:03;0.73;;;0.55;;
32146;SDS011;32190;49.112;8.598;2023-03-23T23:18:56;0.80;;;0.50;;
32146;SDS011;32190;49.112;8.598;2023-03-23T23:24:46;0.50;;;0.50;;
32146;SDS011;32190;49.112;8.598;2023-03-23T23:30:37;0.50;;;0.40;;
32146;SDS011;32190;49.112;8.598;2023-03-23T23:36:28;0.50;;;0.50;;
32146;SDS011;32190;49.112;8.598;2023-03-23T23:42:20;0.50;;;0.50;;
32146;SDS011;32190;49.112;8.598;2023-03-23T23:48:11;0.52;;;0.40;;
32146;SDS011;32190;49.112;8.598;2023-03-23T23:54:02;1.80;;;0.60;;
32146;SDS011;32190;49.112;8.598;2023-03-23T23:59:53;0.47;;;0.47;;
